Time;durP1;ratioP1;P1;durP2;ratioP2;P2;SDS_P1;SDS_P2;PMS_P1;PMS_P2;Temp;Humidity;BMP_temperature;BMP_pressure;BME280_temperature;BME280_humidity;BME280_pressure;Samples;Min_cycle;Max_cycle;Signal;HPM_P1;HPM_P2
2023/09/13 03:25:39;;;;;;;6.57;4.50;;;;;;;17.80;nan;100350.19;6305016;22;20023;-91
2023/09/13 03:28:06;;;;;;;10.05;5.68;;;;;;;17.77;nan;100329.84;6230550;22;20094;-91
2023/09/13 03:30:34;;;;;;;10.02;5.20;;;;;;;17.76;nan;100313.91;6233086;22;20082;-92
2023/09/13 03:33:03;;;;;;;7.80;5.55;;;;;;;17.73;nan;100282.84;6235258;22;20085;-92
2023/09/13 03:35:30;;;;;;;6.88;5.10;;;;;;;17.60;nan;100255.06;6265005;22;20042;-91
2023/09/13 03:37:57;;;;;;;6.97;4.75;;;;;;;17.55;nan;100266.00;6239436;22;20089;-91
2023/09/13 03:40:24;;;;;;;6.47;4.68;;;;;;;17.54;nan;100271.44;6265816;22;20050;-92
2023/09/13 03:42:51;;;;;;;6.22;4.30;;;;;;;17.68;nan;100259.03;6242456;22;20462;-92
2023/09/13 03:45:19;;;;;;;6.18;4.32;;;;;;;17.62;nan;100253.19;6243884;22;20043;-92
2023/09/13 03:47:46;;;;;;;7.20;4.25;;;;;;;17.56;nan;100232.13;6245256;22;20066;-90
2023/09/13 03:50:13;;;;;;;6.38;4.90;;;;;;;17.49;nan;100212.06;6270568;22;20050;-92
2023/09/13 03:52:40;;;;;;;6.82;4.72;;;;;;;17.48;nan;100202.31;6248239;22;20023;-91
2023/09/13 03:55:07;;;;;;;7.47;4.40;;;;;;;17.52;nan;100183.38;6246940;22;20034;-90
2023/09/13 03:57:35;;;;;;;5.93;4.10;;;;;;;17.47;nan;100211.28;6248622;22;20023;-91
2023/09/13 04:00:04;;;;;;;6.88;5.05;;;;;;;17.51;nan;100237.75;6247855;22;20019;-92
2023/09/13 04:02:31;;;;;;;6.32;4.70;;;;;;;17.54;nan;100271.44;6241135;22;20039;-91
2023/09/13 04:04:58;;;;;;;11.63;4.85;;;;;;;17.61;nan;100257.66;6244520;22;20043;-91
2023/09/13 04:07:25;;;;;;;5.47;4.45;;;;;;;17.73;nan;100253.44;6249807;22;20019;-92
2023/09/13 04:09:53;;;;;;;7.30;4.15;;;;;;;17.72;nan;100227.69;6247996;22;20019;-91
2023/09/13 04:12:20;;;;;;;6.18;4.05;;;;;;;17.72;nan;100207.19;6249462;22;20023;-90
2023/09/13 04:14:47;;;;;;;6.63;4.25;;;;;;;17.52;nan;100212.78;6246799;22;20033;-90
2023/09/13 04:17:14;;;;;;;6.88;4.53;;;;;;;17.42;nan;100228.44;6245504;22;20019;-92
2023/09/13 04:19:41;;;;;;;6.18;4.63;;;;;;;17.44;nan;100226.53;6271431;22;20318;-91
2023/09/13 04:22:10;;;;;;;5.45;4.32;;;;;;;17.57;nan;100224.06;6249992;22;20019;-92
2023/09/13 04:24:37;;;;;;;4.85;4.00;;;;;;;17.52;nan;100230.59;6271913;22;20022;-92
2023/09/13 04:27:04;;;;;;;5.90;4.22;;;;;;;17.45;nan;100225.59;6270936;22;20019;-90
2023/09/13 04:29:31;;;;;;;9.70;4.47;;;;;;;17.35;nan;100234.22;6267789;22;20046;-91
2023/09/13 04:31:58;;;;;;;7.13;4.88;;;;;;;17.33;nan;100223.63;6243707;22;20047;-91
2023/09/13 04:34:25;;;;;;;6.82;4.78;;;;;;;17.34;nan;100224.47;6242964;22;20065;-92
2023/09/13 04:36:54;;;;;;;6.15;4.85;;;;;;;17.33;nan;100220.94;6245631;22;20239;-91
2023/09/13 04:39:21;;;;;;;7.05;4.88;;;;;;;17.49;nan;100202.28;6241192;22;20043;-91
2023/09/13 04:41:48;;;;;;;7.18;4.82;;;;;;;17.48;nan;100197.00;6242531;22;20050;-92
2023/09/13 04:44:15;;;;;;;7.85;5.03;;;;;;;17.50;nan;100201.31;6246179;22;20018;-92
2023/09/13 04:46:43;;;;;;;7.65;4.65;;;;;;;17.42;nan;100185.72;6246713;22;20023;-92
2023/09/13 04:49:10;;;;;;;7.18;5.38;;;;;;;17.43;nan;100179.44;6273966;22;20015;-92
2023/09/13 04:51:38;;;;;;;9.40;5.22;;;;;;;17.39;nan;100188.53;6273707;22;20046;-90
2023/09/13 04:54:05;;;;;;;5.28;4.32;;;;;;;17.35;nan;100191.50;6266696;22;20039;-91
2023/09/13 04:56:32;;;;;;;6.13;4.25;;;;;;;17.32;nan;100192.53;6245689;22;20057;-91
2023/09/13 04:58:59;;;;;;;6.65;4.93;;;;;;;17.33;nan;100194.25;6270325;22;20015;-93
2023/09/13 05:01:27;;;;;;;7.93;5.03;;;;;;;17.38;nan;100189.50;6242921;22;20039;-91
2023/09/13 05:03:54;;;;;;;7.53;5.55;;;;;;;17.31;nan;100189.91;6241830;22;20061;-92
2023/09/13 05:06:22;;;;;;;10.18;4.57;;;;;;;17.34;nan;100174.59;6292676;22;20043;-92
2023/09/13 05:08:50;;;;;;;5.85;4.57;;;;;;;17.41;nan;100183.16;6243372;22;20058;-91
2023/09/13 05:11:17;;;;;;;6.35;4.60;;;;;;;17.31;nan;100189.91;6245751;22;20540;-93
2023/09/13 05:13:47;;;;;;;8.70;5.03;;;;;;;17.30;nan;100198.88;6272481;22;20027;-91
2023/09/13 05:16:19;;;;;;;7.90;4.43;;;;;;;17.28;nan;100201.63;6248812;22;20019;-90
2023/09/13 05:18:46;;;;;;;7.35;4.20;;;;;;;17.27;nan;100199.94;6251283;22;20027;-91
2023/09/13 05:21:14;;;;;;;8.32;4.97;;;;;;;17.31;nan;100201.47;6251672;22;20016;-91
2023/09/13 05:23:41;;;;;;;6.72;5.15;;;;;;;17.37;nan;100209.13;6254881;22;20027;-91
2023/09/13 05:26:08;;;;;;;5.55;4.75;;;;;;;17.37;nan;100219.81;6279948;22;20023;-90
2023/09/13 05:28:35;;;;;;;5.47;4.38;;;;;;;17.42;nan;100228.44;6254804;22;20030;-90
2023/09/13 05:31:05;;;;;;;5.70;4.68;;;;;;;17.45;nan;100241.63;6257314;22;20034;-90
2023/09/13 05:33:33;;;;;;;6.55;5.07;;;;;;;17.53;nan;100237.66;6258456;22;20018;-91
2023/09/13 05:36:01;;;;;;;7.82;5.60;;;;;;;17.61;nan;100238.97;6282851;22;20003;-89
2023/09/13 05:38:30;;;;;;;7.97;5.20;;;;;;;17.58;nan;100254.31;6258924;22;20011;-93
2023/09/13 05:40:58;;;;;;;8.65;4.95;;;;;;;17.58;nan;100259.66;6260087;22;20015;-91
2023/09/13 05:43:27;;;;;;;8.25;5.45;;;;;;;17.60;nan;100253.28;6254884;22;20066;-91
2023/09/13 05:45:54;;;;;;;6.13;5.25;;;;;;;17.63;nan;100263.78;6254770;22;20023;-91
2023/09/13 05:48:22;;;;;;;6.40;5.35;;;;;;;17.67;nan;100264.47;6251033;22;20003;-91
2023/09/13 05:50:49;;;;;;;7.32;5.35;;;;;;;17.71;nan;100268.72;6279946;22;20041;-90
2023/09/13 05:53:19;;;;;;;7.93;5.50;;;;;;;17.72;nan;100267.75;6251969;22;20019;-91
2023/09/13 05:55:47;;;;;;;7.35;5.85;;;;;;;17.80;nan;100280.69;6277563;22;20022;-90
2023/09/13 05:58:14;;;;;;;7.38;5.50;;;;;;;17.86;nan;100283.03;6273832;22;20015;-92
2023/09/13 06:00:42;;;;;;;7.20;5.85;;;;;;;17.84;nan;100285.81;6280338;22;20003;-90
2023/09/13 06:03:10;;;;;;;7.72;5.53;;;;;;;17.82;nan;100285.00;6259294;22;20018;-90
2023/09/13 06:05:37;;;;;;;7.15;5.40;;;;;;;17.81;nan;100285.94;6259197;22;20003;-89
2023/09/13 06:08:04;;;;;;;7.63;5.90;;;;;;;17.83;nan;100284.06;6257963;22;19999;-91
2023/09/13 06:10:31;;;;;;;7.63;5.88;;;;;;;17.89;nan;100289.06;6278758;22;20003;-93
2023/09/13 06:12:59;;;;;;;6.63;5.32;;;;;;;17.90;nan;100288.09;6280939;22;20003;-91
2023/09/13 06:15:26;;;;;;;9.27;6.32;;;;;;;17.94;nan;100292.34;6256598;22;20015;-92
2023/09/13 06:17:54;;;;;;;9.23;6.30;;;;;;;18.00;nan;100289.31;6252954;22;20030;-90
2023/09/13 06:20:22;;;;;;;6.68;5.13;;;;;;;17.97;nan;100285.94;6251248;22;20015;-94
2023/09/13 06:22:49;;;;;;;6.80;6.05;;;;;;;18.12;nan;100287.75;6272686;22;20023;-93
2023/09/13 06:25:17;;;;;;;7.22;6.38;;;;;;;18.16;nan;100288.41;6250367;22;20034;-93
2023/09/13 06:27:44;;;;;;;8.27;7.03;;;;;;;18.19;nan;100282.91;6277683;22;20355;-90
2023/09/13 06:30:13;;;;;;;8.27;6.13;;;;;;;18.26;nan;100281.63;6253736;22;20026;-90
2023/09/13 06:32:40;;;;;;;7.72;6.40;;;;;;;18.35;nan;100282.88;6274530;22;20023;-92
2023/09/13 06:35:12;;;;;;;9.52;7.75;;;;;;;18.38;nan;100285.38;6253991;22;20019;-93
2023/09/13 06:37:43;;;;;;;8.93;6.53;;;;;;;18.47;nan;100282.16;6281213;22;20030;-90
2023/09/13 06:40:11;;;;;;;8.93;6.30;;;;;;;18.60;nan;100295.69;6256654;22;20022;-92
2023/09/13 06:42:39;;;;;;;9.70;6.70;;;;;;;18.69;nan;100296.03;6256976;22;20026;-91
2023/09/13 06:45:24;;;;;;;9.85;6.43;;;;;;;18.66;nan;100298.84;6261770;22;20026;-90
2023/09/13 06:47:53;;;;;;;8.32;6.60;;;;;;;18.74;nan;100296.59;6256788;22;20027;-91
2023/09/13 06:50:21;;;;;;;13.20;7.15;;;;;;;18.79;nan;100294.50;6255675;22;20015;-91
2023/09/13 06:53:08;;;;;;;7.95;6.05;;;;;;;18.92;nan;100294.66;6290269;22;20015;-91
2023/09/13 06:55:56;;;;;;;10.68;7.03;;;;;;;18.99;nan;100298.63;6265590;22;20014;-89
2023/09/13 06:58:24;;;;;;;8.05;6.22;;;;;;;19.03;nan;100310.03;6283208;22;20003;-90
2023/09/13 07:00:54;;;;;;;9.43;6.13;;;;;;;19.01;nan;100312.81;6259001;22;20014;-89
2023/09/13 07:03:41;;;;;;;8.75;6.50;;;;;;;19.01;nan;100315.50;6266052;22;20006;-89
2023/09/13 07:06:16;;;;;;;7.97;6.45;;;;;;;19.04;nan;100309.94;6260451;22;20038;-89
2023/09/13 07:08:43;;;;;;;7.47;6.30;;;;;;;19.06;nan;100308.03;6257065;22;20010;-91
2023/09/13 07:11:10;;;;;;;7.68;5.70;;;;;;;19.06;nan;100313.38;6256756;22;20030;-91
2023/09/13 07:13:37;;;;;;;8.05;6.15;;;;;;;19.05;nan;100303.63;6258327;22;19999;-90
2023/09/13 07:16:05;;;;;;;6.88;5.40;;;;;;;19.07;nan;100311.56;6257873;22;20023;-91
2023/09/13 07:18:32;;;;;;;8.45;5.95;;;;;;;19.10;nan;100312.25;6258339;22;20014;-90
2023/09/13 07:20:59;;;;;;;7.10;5.75;;;;;;;19.13;nan;100306.69;6258213;22;20015;-90
2023/09/13 07:23:27;;;;;;;9.93;6.30;;;;;;;19.24;nan;100311.38;6258415;22;20010;-91
2023/09/13 07:25:54;;;;;;;9.82;5.82;;;;;;;19.24;nan;100307.84;6257734;22;20014;-88
2023/09/13 07:28:21;;;;;;;8.32;5.60;;;;;;;19.23;nan;100300.78;6258586;22;20000;-89
2023/09/13 07:30:48;;;;;;;9.43;6.53;;;;;;;19.28;nan;100306.72;6258309;22;20014;-89
2023/09/13 07:33:16;;;;;;;7.93;6.28;;;;;;;19.37;nan;100307.00;6258447;22;19999;-91
2023/09/13 07:35:43;;;;;;;8.55;6.03;;;;;;;19.38;nan;100310.53;6257844;22;20018;-90
2023/09/13 07:38:10;;;;;;;8.57;6.28;;;;;;;19.50;nan;100304.41;6258238;22;20030;-91
2023/09/13 07:40:38;;;;;;;7.82;6.90;;;;;;;19.65;nan;100311.50;6258142;22;20003;-91
2023/09/13 07:43:07;;;;;;;7.28;6.18;;;;;;;19.65;nan;100310.66;6258301;22;20014;-90
2023/09/13 07:45:34;;;;;;;7.97;6.57;;;;;;;19.69;nan;100312.19;6257535;22;19999;-90
2023/09/13 07:48:02;;;;;;;8.82;6.72;;;;;;;19.83;nan;100314.81;6257587;22;20006;-90
2023/09/13 07:50:38;;;;;;;8.48;6.63;;;;;;;19.87;nan;100319.03;6282866;22;20016;-91
2023/09/13 07:53:06;;;;;;;9.52;5.95;;;;;;;19.83;nan;100319.31;6257269;22;20003;-89
2023/09/13 07:55:34;;;;;;;8.32;6.47;;;;;;;19.95;nan;100321.22;6281619;22;20011;-91
2023/09/13 07:58:03;;;;;;;7.45;6.28;;;;;;;19.90;nan;100310.78;6307858;22;19995;-90
2023/09/13 08:00:30;;;;;;;7.57;6.55;;;;;;;19.82;nan;100315.78;6258179;22;20007;-91
2023/09/13 08:03:01;;;;;;;9.40;6.32;;;;;;;19.77;nan;100323.28;6257968;22;20003;-90
2023/09/13 08:05:28;;;;;;;8.70;6.78;;;;;;;19.72;nan;100322.69;6257813;22;19999;-90
2023/09/13 08:07:56;;;;;;;9.30;7.28;;;;;;;19.65;nan;100318.69;6257870;22;20003;-90
2023/09/13 08:10:24;;;;;;;8.98;6.75;;;;;;;19.58;nan;100314.66;6257949;22;20007;-90
2023/09/13 08:12:53;;;;;;;8.40;7.50;;;;;;;19.70;nan;100319.25;6258206;22;20011;-91
2023/09/13 08:15:20;;;;;;;8.90;7.05;;;;;;;19.57;nan;100318.31;6257532;22;20003;-91
2023/09/13 08:18:01;;;;;;;10.48;7.80;;;;;;;19.44;nan;100310.16;6262813;22;20019;-90
2023/09/13 08:20:28;;;;;;;8.18;6.53;;;;;;;19.37;nan;100315.03;6257713;22;20019;-89
2023/09/13 08:22:55;;;;;;;11.35;7.43;;;;;;;19.49;nan;100323.25;6257922;22;20007;-90
2023/09/13 08:25:23;;;;;;;9.43;7.22;;;;;;;19.43;nan;100321.84;6256828;22;20010;-90
2023/09/13 08:27:53;;;;;;;9.27;7.85;;;;;;;19.47;nan;100325.19;6257687;22;20014;-90
2023/09/13 08:30:20;;;;;;;9.25;7.05;;;;;;;19.46;nan;100326.13;6257836;22;20007;-90
2023/09/13 08:32:47;;;;;;;10.38;7.82;;;;;;;19.55;nan;100331.78;6257507;22;20011;-90
2023/09/13 08:35:14;;;;;;;10.20;8.30;;;;;;;19.69;nan;100333.63;6257513;22;20003;-91
2023/09/13 08:37:42;;;;;;;9.35;7.53;;;;;;;19.80;nan;100331.13;6257385;22;20007;-89
2023/09/13 08:40:11;;;;;;;9.02;7.97;;;;;;;19.92;nan;100334.81;6257299;22;20282;-91
2023/09/13 08:42:40;;;;;;;9.63;7.65;;;;;;;20.04;nan;100331.34;6282104;22;20003;-90
2023/09/13 08:45:07;;;;;;;9.52;8.02;;;;;;;19.96;nan;100331.00;6256822;22;20015;-90
2023/09/13 08:47:38;;;;;;;10.65;7.45;;;;;;;20.08;nan;100335.56;6256836;22;20007;-91
2023/09/13 08:50:25;;;;;;;8.15;6.82;;;;;;;20.13;nan;100341.50;6264858;22;20007;-91
2023/09/13 08:52:53;;;;;;;7.68;6.25;;;;;;;20.33;nan;100342.00;6258178;22;20007;-90
2023/09/13 08:55:20;;;;;;;8.07;5.60;;;;;;;20.41;nan;100340.53;6257320;22;20015;-89
2023/09/13 08:57:48;;;;;;;6.30;4.95;;;;;;;20.47;nan;100344.66;6257287;22;20026;-89
2023/09/13 09:00:15;;;;;;;5.78;5.05;;;;;;;20.40;nan;100344.16;6258779;22;20004;-90
2023/09/13 09:02:43;;;;;;;7.72;4.85;;;;;;;20.35;nan;100342.78;6258712;22;20018;-90
2023/09/13 09:05:12;;;;;;;7.47;5.68;;;;;;;20.35;nan;100353.50;6258326;22;20008;-91
2023/09/13 09:07:41;;;;;;;6.68;5.15;;;;;;;20.25;nan;100348.72;6259253;22;20003;-91
2023/09/13 09:10:11;;;;;;;7.22;5.40;;;;;;;20.37;nan;100349.75;6282502;22;20018;-91
2023/09/13 09:12:45;;;;;;;6.28;5.38;;;;;;;20.46;nan;100348.31;6258297;22;20003;-92
2023/09/13 09:15:13;;;;;;;5.88;4.72;;;;;;;20.49;nan;100353.47;6256545;22;20026;-92
2023/09/13 09:17:41;;;;;;;7.43;4.85;;;;;;;20.50;nan;100357.88;6255012;22;20003;-90
2023/09/13 09:20:09;;;;;;;5.88;5.05;;;;;;;20.46;nan;100354.53;6255445;22;20015;-91
2023/09/13 09:22:37;;;;;;;4.60;4.18;;;;;;;20.48;nan;100354.44;6254276;22;20015;-91
2023/09/13 09:25:10;;;;;;;5.47;4.60;;;;;;;20.62;nan;100353.53;6253210;22;20006;-92
2023/09/13 09:27:41;;;;;;;5.95;4.45;;;;;;;20.65;nan;100354.16;6279800;22;20114;-89
2023/09/13 09:30:14;;;;;;;5.78;4.50;;;;;;;20.56;nan;100357.47;6282285;22;20010;-92
2023/09/13 09:32:43;;;;;;;5.57;4.22;;;;;;;20.57;nan;100359.19;6283260;22;20023;-94
2023/09/13 09:35:11;;;;;;;4.45;4.05;;;;;;;20.54;nan;100355.84;6259722;22;20015;-94
2023/09/13 09:37:39;;;;;;;6.30;4.55;;;;;;;20.61;nan;100363.41;6250248;22;20030;-93
2023/09/13 09:40:12;;;;;;;6.32;4.68;;;;;;;20.75;nan;100363.31;6259010;22;20008;-93
2023/09/13 09:42:45;;;;;;;5.20;3.92;;;;;;;20.74;nan;100352.69;6259274;22;20015;-93
2023/09/13 09:45:12;;;;;;;5.30;4.03;;;;;;;20.85;nan;100366.25;6256049;22;20018;-94
2023/09/13 09:47:41;;;;;;;4.43;4.03;;;;;;;20.75;nan;100355.25;6259195;22;20023;-95
2023/09/13 09:50:11;;;;;;;4.32;3.92;;;;;;;20.77;nan;100371.28;6258446;22;20003;-94
2023/09/13 09:52:38;;;;;;;4.07;3.38;;;;;;;20.62;nan;100375.00;6255909;22;20037;-94
2023/09/13 09:55:07;;;;;;;4.60;3.70;;;;;;;20.50;nan;100372.16;6258812;22;20004;-95
2023/09/13 09:57:34;;;;;;;4.20;3.83;;;;;;;20.35;nan;100373.16;6258587;22;20030;-94
2023/09/13 10:00:02;;;;;;;4.57;3.83;;;;;;;20.37;nan;100371.22;6259237;22;20018;-93
2023/09/13 10:02:31;;;;;;;4.18;3.78;;;;;;;20.37;nan;100371.22;6257950;22;20016;-95
2023/09/13 10:05:03;;;;;;;4.88;3.45;;;;;;;20.36;nan;100371.31;6282551;22;20003;-93
2023/09/13 10:07:30;;;;;;;4.22;3.83;;;;;;;20.39;nan;100382.69;6258818;22;20026;-95
2023/09/13 10:09:58;;;;;;;4.50;3.83;;;;;;;20.41;nan;100372.72;6257413;22;20010;-95
2023/09/13 10:12:25;;;;;;;3.90;3.50;;;;;;;20.43;nan;100376.22;6282559;22;20026;-92
2023/09/13 10:14:52;;;;;;;6.03;3.88;;;;;;;20.51;nan;100386.41;6258977;22;20064;-94
2023/09/13 10:17:21;;;;;;;4.20;3.60;;;;;;;20.44;nan;100380.63;6259793;22;20007;-93
2023/09/13 10:19:50;;;;;;;3.33;3.03;;;;;;;20.46;nan;100380.50;6258933;22;20003;-94
2023/09/13 10:22:18;;;;;;;3.22;2.60;;;;;;;20.50;nan;100382.88;6258933;22;20007;-92
2023/09/13 10:24:49;;;;;;;3.28;2.40;;;;;;;20.49;nan;100385.66;6284126;22;20030;-92
2023/09/13 10:27:19;;;;;;;3.17;2.60;;;;;;;20.58;nan;100389.56;6258943;22;20015;-93
2023/09/13 10:29:57;;;;;;;3.70;2.90;;;;;;;20.67;nan;100399.69;6259308;22;20007;-94
2023/09/13 10:32:32;;;;;;;2.95;2.40;;;;;;;20.64;nan;100390.03;6258942;22;20007;-94
2023/09/13 10:35:02;;;;;;;2.45;2.22;;;;;;;20.63;nan;100401.72;6258984;22;20007;-95
2023/09/13 10:37:38;;;;;;;4.63;2.30;;;;;;;20.51;nan;100399.84;6258397;22;20015;-94
2023/09/13 10:40:16;;;;;;;2.50;2.30;;;;;;;20.43;nan;100410.19;6283914;22;20007;-93
2023/09/13 10:42:44;;;;;;;2.58;2.38;;;;;;;20.29;nan;100410.25;6259062;22;20007;-93
2023/09/13 10:45:14;;;;;;;2.42;2.22;;;;;;;20.29;nan;100405.72;6258718;22;20025;-94
2023/09/13 10:47:41;;;;;;;3.35;2.55;;;;;;;20.40;nan;100407.72;6259504;22;20019;-94
2023/09/13 10:50:09;;;;;;;2.50;2.30;;;;;;;20.55;nan;100404.06;6258717;22;20003;-93
2023/09/13 10:52:38;;;;;;;2.75;2.30;;;;;;;20.67;nan;100407.75;6258538;22;20011;-94
2023/09/13 10:55:06;;;;;;;2.67;2.45;;;;;;;20.75;nan;100414.31;6258763;22;20199;-92
2023/09/13 10:57:34;;;;;;;3.25;2.95;;;;;;;20.80;nan;100420.25;6308453;22;20003;-93
2023/09/13 11:00:09;;;;;;;2.53;2.30;;;;;;;20.91;nan;100422.22;6258628;22;20022;-93
2023/09/13 11:02:41;;;;;;;3.20;2.67;;;;;;;21.04;nan;100422.28;6258057;22;20019;-93
2023/09/13 11:05:13;;;;;;;3.30;2.58;;;;;;;21.08;nan;100429.13;6257794;22;19999;-89
2023/09/13 11:07:48;;;;;;;2.90;2.53;;;;;;;21.16;nan;100429.47;6283666;22;20003;-89
2023/09/13 11:10:17;;;;;;;2.72;2.40;;;;;;;21.27;nan;100435.03;6259202;22;20003;-90
2023/09/13 11:12:51;;;;;;;2.78;2.53;;;;;;;21.33;nan;100442.66;6258301;22;20014;-89
2023/09/13 11:15:23;;;;;;;3.25;2.50;;;;;;;21.39;nan;100443.22;6259308;22;20015;-89
2023/09/13 11:17:56;;;;;;;5.05;3.30;;;;;;;21.47;nan;100441.72;6258656;22;20004;-89
2023/09/13 11:20:38;;;;;;;3.55;2.80;;;;;;;21.52;nan;100453.00;6283825;22;20007;-90
2023/09/13 11:23:10;;;;;;;3.10;2.78;;;;;;;21.60;nan;100449.78;6259529;22;20018;-90
2023/09/13 11:26:02;;;;;;;3.35;2.78;;;;;;;21.85;nan;100460.53;6266265;22;20000;-91
2023/09/13 11:28:38;;;;;;;3.33;2.83;;;;;;;21.98;nan;100448.91;6259859;22;20014;-91
2023/09/13 11:31:07;;;;;;;;;;;;;;;21.97;nan;100457.97;6284123;22;20018;-90
2023/09/13 11:33:58;;;;;;;3.65;3.20;;;;;;;21.92;nan;100463.66;6258503;22;19930;-90
2023/09/13 11:36:31;;;;;;;2.85;2.47;;;;;;;21.77;nan;100479.03;6247947;22;20003;-90
2023/09/13 11:39:02;;;;;;;2.83;2.40;;;;;;;21.73;nan;100471.31;6258625;22;20018;-90
2023/09/13 11:41:38;;;;;;;2.95;2.60;;;;;;;21.66;nan;100478.94;6258547;22;20000;-91
2023/09/13 11:44:23;;;;;;;3.10;2.80;;;;;;;21.70;nan;100490.34;6264601;22;20007;-93
2023/09/13 11:47:14;;;;;;;3.20;2.78;;;;;;;21.74;nan;100498.06;6262839;22;20010;-94
